Terminal Aerodrome Forecast
Issued by NWS

Home | Current Version | Previous Version | Text Only | Print | Product List | Glossary On
Versions: 1 2 3 4 5 6 7 8 9 10 11 12 13 14 15 16 17 18
000
FTUS43 KGLD 060520
TAFMCK
TAF
KMCK 060520Z 0606/0706 33012KT P6SM FEW110
     FM061100 30010KT P6SM SKC
     FM062200 34009KT P6SM SCT200
     FM070200 02009KT 6SM -SN BKN060 BKN110=

USA.gov is the U.S. government's official web portal to all federal, state and local government web resources and services.